Time;durP1;ratioP1;P1;durP2;ratioP2;P2;SDS_P1;SDS_P2;PMS_P1;PMS_P2;Temp;Humidity;BMP_temperature;BMP_pressure;BME280_temperature;BME280_humidity;BME280_pressure;Samples;Min_cycle;Max_cycle;Signal;HPM_P1;HPM_P2
2023/11/04 00:02:26;;;;;;;9.23;6.93;;;;;;;4.29;100.00;100568.03;5054159;28;20274;-66
2023/11/04 00:04:51;;;;;;;9.63;6.53;;;;;;;4.24;100.00;100558.84;5054033;28;20046;-67
2023/11/04 00:07:17;;;;;;;10.60;7.67;;;;;;;4.37;100.00;100588.50;5052941;28;20287;-67
2023/11/04 00:09:44;;;;;;;11.90;7.13;;;;;;;4.33;100.00;100574.72;5054656;28;20029;-66
2023/11/04 00:12:11;;;;;;;7.23;6.23;;;;;;;4.29;100.00;100560.13;5055796;28;20290;-64
2023/11/04 00:14:37;;;;;;;9.80;7.23;;;;;;;4.42;100.00;100585.50;5054211;28;20266;-66
2023/11/04 00:17:02;;;;;;;10.17;6.60;;;;;;;4.36;100.00;100571.03;5053954;28;20041;-66
2023/11/04 00:19:28;;;;;;;11.73;6.67;;;;;;;4.37;100.00;100571.88;5053780;28;20373;-67
2023/11/04 00:21:54;;;;;;;12.50;8.73;;;;;;;4.43;100.00;100560.78;5053544;28;20040;-65
2023/11/04 00:24:19;;;;;;;10.63;7.63;;;;;;;4.27;100.00;100535.69;5053587;28;20037;-65
2023/11/04 00:26:45;;;;;;;10.03;7.57;;;;;;;4.39;100.00;100557.59;5053556;28;20080;-68
2023/11/04 00:29:11;;;;;;;8.87;7.87;;;;;;;4.40;100.00;100546.06;5053286;28;20118;-66
2023/11/04 00:31:36;;;;;;;11.50;7.00;;;;;;;4.46;100.00;100545.56;5053425;28;20519;-67
2023/11/04 00:34:21;;;;;;;9.60;7.20;;;;;;;4.40;100.00;100534.69;5053232;28;20135;-66
2023/11/04 00:37:07;;;;;;;14.60;7.53;;;;;;;4.43;100.00;100526.53;5052346;28;20358;-66
2023/11/04 00:39:52;;;;;;;9.87;7.43;;;;;;;4.38;100.00;100515.53;5052258;28;20291;-65
2023/11/04 00:42:38;;;;;;;12.47;7.13;;;;;;;4.47;100.00;100526.13;5052287;28;20337;-65
2023/11/04 00:45:23;;;;;;;10.07;7.43;;;;;;;4.49;100.00;100533.91;5052085;28;20315;-67
2023/11/04 00:48:09;;;;;;;11.73;6.67;;;;;;;4.28;100.00;100510.16;5052533;28;20274;-68
2023/11/04 00:50:54;;;;;;;8.13;6.23;;;;;;;4.40;100.00;100509.16;5052344;28;20276;-67
2023/11/04 00:53:40;;;;;;;8.93;6.30;;;;;;;4.48;100.00;100516.41;5052492;28;20290;-66
2023/11/04 00:56:26;;;;;;;12.03;6.67;;;;;;;4.46;100.00;100498.09;5053330;28;20302;-65
2023/11/04 00:59:11;;;;;;;14.97;8.17;;;;;;;4.57;100.00;100515.63;5052887;28;20271;-68
2023/11/04 01:01:56;;;;;;;9.97;6.10;;;;;;;4.59;100.00;100508.41;5052046;28;20268;-67
2023/11/04 01:04:42;;;;;;;8.77;6.97;;;;;;;4.59;100.00;100508.41;5052067;28;20512;-67
2023/11/04 01:07:28;;;;;;;8.77;6.30;;;;;;;4.54;100.00;100515.88;5052896;28;20283;-66
2023/11/04 01:10:14;;;;;;;7.67;6.67;;;;;;;4.50;100.00;100510.03;5051921;28;20272;-66
2023/11/04 01:12:59;;;;;;;8.47;6.93;;;;;;;4.57;100.00;100510.34;5051955;28;20638;-69
2023/11/04 01:15:44;;;;;;;7.77;6.30;;;;;;;4.51;100.00;100495.88;5052010;28;20694;-67
2023/11/04 01:18:30;;;;;;;7.70;6.60;;;;;;;4.53;100.00;100504.50;5051832;28;20755;-67
2023/11/04 01:21:16;;;;;;;8.80;6.43;;;;;;;4.47;100.00;100489.22;5052956;28;20275;-68
2023/11/04 01:24:03;;;;;;;8.70;6.40;;;;;;;4.50;100.00;100483.66;5052469;28;20283;-69
2023/11/04 01:26:52;;;;;;;9.03;6.10;;;;;;;4.62;100.00;100493.16;5052590;28;20303;-66
2023/11/04 01:29:38;;;;;;;7.27;5.73;;;;;;;4.44;100.00;100462.28;5052641;28;20260;-67
2023/11/04 01:32:23;;;;;;;7.10;5.90;;;;;;;4.27;100.00;100429.41;5052728;28;20297;-68
2023/11/04 01:35:09;;;;;;;10.17;5.97;;;;;;;4.52;100.00;100455.38;5052145;28;20511;-68
2023/11/04 01:37:54;;;;;;;8.53;5.73;;;;;;;4.52;100.00;100465.91;5052077;28;20314;-67
2023/11/04 01:40:39;;;;;;;9.20;5.80;;;;;;;4.48;100.00;100459.25;5050487;28;20267;-68
2023/11/04 01:43:25;;;;;;;8.63;6.40;;;;;;;4.54;100.00;100469.25;5051110;28;20322;-64
2023/11/04 01:46:21;;;;;;;8.13;6.43;;;;;;;4.54;100.00;100471.06;5051993;28;20048;-66
2023/11/04 01:49:07;;;;;;;8.00;5.87;;;;;;;4.42;100.00;100438.66;5051156;28;20287;-65
2023/11/04 01:51:53;;;;;;;7.20;6.37;;;;;;;4.34;100.00;100434.06;5050929;28;20774;-67
2023/11/04 01:54:39;;;;;;;7.27;6.10;;;;;;;4.33;100.00;100435.00;5051300;28;20674;-65
2023/11/04 01:57:25;;;;;;;9.33;6.97;;;;;;;4.39;100.00;100460.03;5051045;28;20275;-66
2023/11/04 02:00:11;;;;;;;7.60;6.07;;;;;;;4.43;100.00;100455.31;5050873;28;20299;-66
2023/11/04 02:02:56;;;;;;;8.03;5.97;;;;;;;4.37;100.00;100445.31;5051176;28;20280;-67
2023/11/04 02:05:42;;;;;;;6.43;5.73;;;;;;;4.37;100.00;100429.50;5051794;28;20303;-65
2023/11/04 02:08:28;;;;;;;6.97;6.20;;;;;;;4.39;100.00;100425.75;5050799;28;20809;-67
2023/11/04 02:11:13;;;;;;;5.40;4.83;;;;;;;4.32;100.00;100416.66;5050659;28;20680;-69
2023/11/04 02:13:58;;;;;;;6.13;5.00;;;;;;;4.32;100.00;100406.13;5050516;28;20642;-67
2023/11/04 02:16:44;;;;;;;7.07;5.20;;;;;;;4.33;100.00;100399.88;5050471;28;20276;-65
2023/11/04 02:19:29;;;;;;;7.27;5.53;;;;;;;4.44;100.00;100404.25;5050522;28;20885;-67
2023/11/04 02:22:15;;;;;;;9.87;6.57;;;;;;;4.30;100.00;100386.97;5050662;28;20325;-68
2023/11/04 02:25:01;;;;;;;7.30;5.70;;;;;;;4.38;100.00;100408.25;5050874;28;20282;-67
2023/11/04 02:27:46;;;;;;;5.70;4.90;;;;;;;4.15;100.00;100361.94;5050404;28;20336;-66
2023/11/04 02:30:32;;;;;;;8.47;5.33;;;;;;;4.23;100.00;100367.38;5050953;28;20283;-65
2023/11/04 02:33:17;;;;;;;8.60;5.97;;;;;;;4.28;100.00;100386.28;5037743;28;20276;-66
2023/11/04 02:36:03;;;;;;;6.73;4.97;;;;;;;4.28;100.00;100400.28;5050808;28;20298;-67
2023/11/04 02:38:48;;;;;;;6.97;5.70;;;;;;;4.28;100.00;100395.00;5062071;28;20307;-66
2023/11/04 02:41:34;;;;;;;7.23;5.53;;;;;;;4.20;100.00;100381.66;5062776;28;20422;-66
2023/11/04 02:44:22;;;;;;;6.20;5.43;;;;;;;4.31;100.00;100378.94;5060374;28;20414;-65
2023/11/04 02:47:08;;;;;;;4.90;4.30;;;;;;;4.10;100.00;100354.44;5050867;28;20295;-66
2023/11/04 02:49:56;;;;;;;9.23;4.70;;;;;;;4.18;100.00;100388.03;5052486;28;20076;-68
2023/11/04 02:52:42;;;;;;;5.65;5.05;;;;;;;4.09;100.00;100367.75;5036609;28;20271;-67
2023/11/04 02:55:27;;;;;;;8.77;5.03;;;;;;;4.03;100.00;100359.38;5036994;28;20033;-69
2023/11/04 02:58:13;;;;;;;6.90;5.17;;;;;;;4.13;100.00;100363.88;5050553;28;20259;-67
2023/11/04 03:00:59;;;;;;;5.43;4.70;;;;;;;4.16;100.00;100369.72;5050356;28;20675;-68
2023/11/04 03:03:44;;;;;;;5.97;4.60;;;;;;;4.17;100.00;100389.00;5050190;28;20655;-70
2023/11/04 03:06:30;;;;;;;5.57;4.80;;;;;;;4.23;100.00;100422.72;5049890;28;20303;-69
2023/11/04 03:09:16;;;;;;;5.77;5.00;;;;;;;4.25;100.00;100420.81;5050432;28;20275;-68
2023/11/04 03:12:01;;;;;;;6.83;4.90;;;;;;;4.22;100.00;100423.69;5050461;28;20274;-66
2023/11/04 03:14:47;;;;;;;6.63;4.97;;;;;;;4.22;100.00;100408.72;5050126;28;20279;-67
2023/11/04 03:17:32;;;;;;;7.20;4.93;;;;;;;4.10;100.00;100408.94;5049795;28;20264;-68
2023/11/04 03:20:18;;;;;;;8.33;4.60;;;;;;;4.27;100.00;100437.31;5050020;28;20271;-68
2023/11/04 03:23:04;;;;;;;6.90;5.77;;;;;;;4.32;100.00;100435.13;5049915;28;20763;-67
2023/11/04 03:25:49;;;;;;;4.73;4.23;;;;;;;3.93;100.00;100365.56;5052047;28;20303;-69
2023/11/04 03:28:35;;;;;;;7.93;5.33;;;;;;;4.28;100.00;100410.84;5051413;28;20393;-67
2023/11/04 03:31:20;;;;;;;5.93;5.17;;;;;;;4.17;100.00;100381.09;5050901;28;20357;-68
2023/11/04 03:34:06;;;;;;;6.17;5.00;;;;;;;4.28;100.00;100399.44;5051498;28;20263;-70
2023/11/04 03:36:51;;;;;;;7.57;5.27;;;;;;;4.21;100.00;100400.94;5038150;28;20290;-65
2023/11/04 03:39:37;;;;;;;33.50;6.77;;;;;;;4.15;100.00;100380.38;5051506;28;20297;-67
2023/11/04 03:42:22;;;;;;;5.63;5.07;;;;;;;4.19;100.00;100363.34;5051298;28;20366;-69
2023/11/04 03:45:08;;;;;;;8.67;6.10;;;;;;;4.20;100.00;100375.56;5050654;28;20278;-67
2023/11/04 03:47:53;;;;;;;6.20;4.57;;;;;;;4.03;100.00;100358.53;5050085;28;20287;-68
2023/11/04 03:50:39;;;;;;;5.87;4.60;;;;;;;4.02;100.00;100357.69;5050090;28;20279;-67
2023/11/04 03:53:24;;;;;;;9.03;4.80;;;;;;;3.98;100.00;100329.09;5054194;28;20271;-68
2023/11/04 03:56:09;;;;;;;5.83;4.80;;;;;;;4.09;100.00;100330.84;5055710;28;20379;-65
2023/11/04 03:58:55;;;;;;;5.37;4.83;;;;;;;3.97;100.00;100317.75;5057772;28;20259;-65
2023/11/04 04:01:40;;;;;;;10.70;5.43;;;;;;;4.18;100.00;100351.97;5056948;28;20347;-66
2023/11/04 04:04:26;;;;;;;11.13;5.30;;;;;;;3.84;100.00;100274.16;5054016;28;20282;-66
2023/11/04 04:07:11;;;;;;;6.23;4.67;;;;;;;4.04;100.00;100305.69;5053718;28;20345;-68
2023/11/04 04:09:57;;;;;;;9.23;5.80;;;;;;;4.03;100.00;100311.94;5054757;28;20358;-67
2023/11/04 04:12:42;;;;;;;7.67;5.07;;;;;;;3.70;100.00;100246.34;5053632;28;20615;-69
2023/11/04 04:15:28;;;;;;;5.70;5.10;;;;;;;3.88;100.00;100292.19;5053354;28;20378;-67
2023/11/04 04:18:13;;;;;;;4.80;4.30;;;;;;;3.95;100.00;100309.13;5053149;28;20318;-66
2023/11/04 04:20:59;;;;;;;7.93;4.60;;;;;;;3.97;100.00;100296.66;5053816;28;20424;-69
2023/11/04 04:23:44;;;;;;;11.10;5.43;;;;;;;3.81;100.00;100259.44;5038912;28;20377;-68
2023/11/04 04:26:30;;;;;;;4.97;4.37;;;;;;;3.98;100.00;100282.53;5052829;28;20879;-70
2023/11/04 04:29:15;;;;;;;5.37;4.53;;;;;;;3.97;100.00;100272.94;5052585;28;20299;-66
2023/11/04 04:32:01;;;;;;;5.77;4.40;;;;;;;3.95;100.00;100284.59;5052727;28;20267;-68
2023/11/04 04:34:46;;;;;;;6.97;5.27;;;;;;;3.95;100.00;100269.63;5052991;28;20272;-67
2023/11/04 04:37:32;;;;;;;6.87;5.10;;;;;;;3.92;100.00;100251.44;5054168;28;20682;-69
2023/11/04 04:40:18;;;;;;;6.70;4.27;;;;;;;4.06;100.00;100270.50;5053374;28;20275;-67
2023/11/04 04:43:03;;;;;;;6.77;5.83;;;;;;;4.02;100.00;100262.84;5052381;28;20271;-67
2023/11/04 04:45:49;;;;;;;6.77;5.17;;;;;;;3.95;100.00;100282.78;5052134;28;20386;-67
2023/11/04 04:48:34;;;;;;;5.60;4.80;;;;;;;4.06;100.00;100292.41;5052211;28;20255;-66
2023/11/04 04:51:20;;;;;;;5.60;4.87;;;;;;;4.11;100.00;100297.28;5052228;28;20252;-66
2023/11/04 04:54:05;;;;;;;8.93;4.63;;;;;;;4.06;100.00;100299.50;5053215;28;20299;-66
2023/11/04 04:56:51;;;;;;;5.70;4.87;;;;;;;4.03;100.00;100297.94;5052897;28;20316;-67
2023/11/04 04:59:36;;;;;;;6.63;4.70;;;;;;;3.96;100.00;100273.91;5053380;28;20366;-68
2023/11/04 05:02:22;;;;;;;7.77;4.87;;;;;;;3.99;100.00;100268.38;5052114;28;20362;-65
2023/11/04 05:05:09;;;;;;;8.33;4.77;;;;;;;4.02;100.00;100278.66;5051978;28;20272;-69
2023/11/04 05:07:55;;;;;;;6.87;5.97;;;;;;;3.69;100.00;100226.22;5052012;28;20260;-68
2023/11/04 05:10:40;;;;;;;7.53;5.23;;;;;;;3.91;100.00;100265.56;5052080;28;20318;-65
2023/11/04 05:13:26;;;;;;;9.33;5.50;;;;;;;3.91;100.00;100259.47;5051854;28;20275;-68
2023/11/04 05:16:11;;;;;;;5.63;4.93;;;;;;;3.98;100.00;100264.06;5050991;28;20267;-67
2023/11/04 05:18:57;;;;;;;11.97;5.67;;;;;;;4.03;100.00;100263.69;5052066;28;20297;-68
2023/11/04 05:21:42;;;;;;;6.77;4.70;;;;;;;3.97;100.00;100270.31;5051601;28;20268;-70
2023/11/04 05:24:28;;;;;;;10.87;5.97;;;;;;;4.01;100.00;100295.44;5051782;28;20303;-67
2023/11/04 05:27:13;;;;;;;6.57;5.60;;;;;;;3.91;100.00;100286.66;5051441;28;20377;-65
2023/11/04 05:29:59;;;;;;;7.70;5.70;;;;;;;3.85;100.00;100271.38;5051561;28;20779;-66
2023/11/04 05:32:44;;;;;;;8.40;5.37;;;;;;;3.89;100.00;100283.31;5051711;28;20687;-68
2023/11/04 05:35:30;;;;;;;7.13;5.63;;;;;;;3.88;100.00;100284.28;5051380;28;20668;-69
2023/11/04 05:38:17;;;;;;;8.37;6.53;;;;;;;4.00;100.00;100304.28;5051151;28;20270;-68
2023/11/04 05:41:02;;;;;;;11.40;5.07;;;;;;;4.02;100.00;100302.38;5037285;28;20364;-67
2023/11/04 05:43:48;;;;;;;6.27;4.93;;;;;;;3.93;100.00;100287.34;5051397;28;20306;-66
2023/11/04 05:46:33;;;;;;;8.50;5.00;;;;;;;4.00;100.00;100306.09;5051265;28;20299;-68
2023/11/04 05:49:19;;;;;;;5.57;4.77;;;;;;;3.78;100.00;100264.97;5051103;28;20703;-67
2023/11/04 05:52:04;;;;;;;7.20;5.93;;;;;;;4.02;100.00;100291.81;5051423;28;20267;-66
2023/11/04 05:54:50;;;;;;;8.33;5.43;;;;;;;3.99;100.00;100284.19;5051285;28;20268;-67
2023/11/04 05:57:35;;;;;;;6.90;5.40;;;;;;;3.98;100.00;100276.41;5050927;28;20766;-67
2023/11/04 06:00:21;;;;;;;9.23;5.50;;;;;;;3.92;100.00;100259.34;5051040;28;20271;-68
2023/11/04 06:03:08;;;;;;;6.90;6.03;;;;;;;4.00;100.00;100280.59;5051078;28;20294;-66
2023/11/04 06:05:55;;;;;;;5.97;5.37;;;;;;;4.02;100.00;100268.09;5037068;28;20302;-67
2023/11/04 06:08:41;;;;;;;7.17;5.77;;;;;;;4.03;100.00;100274.22;5050990;28;20310;-68
2023/11/04 06:11:26;;;;;;;9.07;6.53;;;;;;;3.84;100.00;100232.84;5050823;28;20294;-68
2023/11/04 06:14:13;;;;;;;9.83;5.97;;;;;;;4.04;100.00;100254.81;5050947;28;20758;-66
2023/11/04 06:16:58;;;;;;;6.23;5.60;;;;;;;4.03;100.00;100243.44;5050565;28;20618;-70
2023/11/04 06:19:44;;;;;;;7.83;5.77;;;;;;;4.06;100.00;100246.78;5051010;28;20657;-67
2023/11/04 06:22:31;;;;;;;7.00;5.40;;;;;;;4.14;100.00;100258.31;5050821;28;20292;-68
2023/11/04 06:25:16;;;;;;;7.97;6.53;;;;;;;4.15;100.00;100248.63;5051214;28;20286;-68
2023/11/04 06:28:02;;;;;;;9.57;6.03;;;;;;;4.20;100.00;100238.50;5052459;28;20301;-68
2023/11/04 06:30:47;;;;;;;7.53;6.03;;;;;;;4.21;100.00;100241.00;5039044;28;20375;-67
2023/11/04 06:33:33;;;;;;;8.40;5.40;;;;;;;4.09;100.00;100215.72;5021887;28;20280;-66
2023/11/04 06:36:18;;;;;;;5.70;5.10;;;;;;;4.15;100.00;100219.63;5035949;28;20279;-66
2023/11/04 06:39:04;;;;;;;9.20;6.17;;;;;;;4.18;100.00;100220.19;5033003;28;20333;-65
2023/11/04 06:41:50;;;;;;;6.20;5.60;;;;;;;4.22;100.00;100221.59;5032499;28;20272;-66
2023/11/04 06:44:35;;;;;;;7.33;5.73;;;;;;;4.12;100.00;100190.91;5035834;28;20322;-66
2023/11/04 06:47:22;;;;;;;9.83;5.87;;;;;;;4.18;100.00;100198.28;5036053;28;20299;-67
2023/11/04 06:50:08;;;;;;;7.30;5.37;;;;;;;3.71;100.00;100134.75;5050516;28;20266;-64
2023/11/04 06:52:34;;;;;;;7.43;5.23;;;;;;;3.93;100.00;100165.34;5055037;28;20260;-68
2023/11/04 06:54:59;;;;;;;6.40;5.53;;;;;;;4.08;100.00;100181.63;5051329;28;20310;-69
2023/11/04 06:57:25;;;;;;;8.80;6.37;;;;;;;4.04;100.00;100152.88;5053118;28;20034;-64
2023/11/04 06:59:51;;;;;;;6.83;5.60;;;;;;;4.21;100.00;100179.53;5053527;28;20044;-68
2023/11/04 07:02:16;;;;;;;7.30;5.63;;;;;;;4.22;100.00;100153.06;5053551;28;20032;-67
2023/11/04 07:04:42;;;;;;;7.53;6.20;;;;;;;4.17;100.00;100168.44;5051547;28;20037;-67
2023/11/04 07:07:08;;;;;;;6.30;5.47;;;;;;;4.00;100.00;100143.56;5052337;28;20105;-69
2023/11/04 07:09:35;;;;;;;6.67;5.97;;;;;;;3.96;100.00;100152.72;5052544;28;20041;-67
2023/11/04 07:12:00;;;;;;;6.47;5.50;;;;;;;4.12;100.00;100193.53;5048948;28;20367;-69
2023/11/04 07:14:26;;;;;;;7.00;6.03;;;;;;;4.20;100.00;100198.97;5049181;28;20037;-71
2023/11/04 07:16:55;;;;;;;7.20;6.10;;;;;;;4.18;100.00;100198.28;5048596;28;20033;-66
2023/11/04 07:19:21;;;;;;;9.67;6.33;;;;;;;4.10;100.00;100187.56;5049982;28;20040;-68
2023/11/04 07:21:47;;;;;;;7.37;5.77;;;;;;;4.13;100.00;100195.22;5033182;28;20304;-67
2023/11/04 07:24:13;;;;;;;9.10;5.20;;;;;;;4.09;100.00;100199.94;5049238;28;20127;-67
2023/11/04 07:26:38;;;;;;;11.87;6.30;;;;;;;4.04;100.00;100202.09;5032988;28;20084;-70
2023/11/04 07:29:05;;;;;;;11.40;6.47;;;;;;;3.96;100.00;100194.88;5031283;28;20034;-68
2023/11/04 07:31:31;;;;;;;9.00;6.30;;;;;;;4.10;100.00;100203.38;5031175;28;20041;-69
2023/11/04 07:33:57;;;;;;;9.63;6.37;;;;;;;4.01;100.00;100192.66;5031178;28;20643;-68
2023/11/04 07:36:24;;;;;;;12.57;6.40;;;;;;;4.02;100.00;100167.97;5031982;28;20271;-67
2023/11/04 07:38:52;;;;;;;11.00;5.73;;;;;;;4.06;100.00;100171.22;5033827;28;20069;-66
2023/11/04 07:41:18;;;;;;;9.43;5.97;;;;;;;4.06;100.00;100162.47;5034760;28;20778;-66
2023/11/04 07:43:44;;;;;;;8.40;6.30;;;;;;;3.97;100.00;100164.09;5034803;28;20260;-66
2023/11/04 07:46:09;;;;;;;7.13;5.20;;;;;;;4.00;100.00;100163.81;5034563;28;20798;-67
2023/11/04 07:48:35;;;;;;;10.93;6.10;;;;;;;3.94;100.00;100152.03;5034837;28;20472;-67
2023/11/04 07:51:01;;;;;;;6.63;5.27;;;;;;;3.94;100.00;100144.13;5035268;28;20037;-68
2023/11/04 07:53:27;;;;;;;9.20;5.57;;;;;;;3.88;100.00;100147.31;5034830;28;20044;-67
2023/11/04 07:55:53;;;;;;;8.77;4.60;;;;;;;3.93;100.00;100146.91;5034641;28;20038;-68
2023/11/04 07:58:21;;;;;;;8.17;5.60;;;;;;;3.76;100.00;100124.69;5033463;28;20283;-67
2023/11/04 08:00:47;;;;;;;10.23;6.32;;;;;;;4.01;100.00;100168.94;5034696;28;20408;-69
2023/11/04 08:03:13;;;;;;;9.87;5.37;;;;;;;4.01;100.00;100182.13;5034509;28;20523;-67
2023/11/04 08:05:40;;;;;;;10.07;6.10;;;;;;;4.03;100.00;100187.25;5033668;28;20296;-70
2023/11/04 08:08:13;;;;;;;10.07;6.43;;;;;;;4.03;100.00;100189.91;5034567;28;20037;-67
2023/11/04 08:10:40;;;;;;;13.33;6.33;;;;;;;3.89;100.00;100183.22;5034334;28;20299;-66
2023/11/04 08:13:05;;;;;;;12.63;6.27;;;;;;;4.15;100.00;100193.28;5034470;28;20371;-66
2023/11/04 08:15:31;;;;;;;8.23;6.13;;;;;;;4.07;100.00;100185.22;5034277;28;20037;-66
2023/11/04 08:17:59;;;;;;;9.27;6.33;;;;;;;4.16;100.00;100205.47;5032979;28;20096;-68
2023/11/04 08:20:25;;;;;;;7.10;5.30;;;;;;;3.95;100.00;100182.66;5034111;28;20041;-68
2023/11/04 08:22:51;;;;;;;6.90;5.60;;;;;;;4.02;100.00;100199.59;5034063;28;20065;-66
2023/11/04 08:25:17;;;;;;;7.87;5.50;;;;;;;4.00;100.00;100175.19;5034316;28;20041;-66
2023/11/04 08:27:44;;;;;;;7.90;5.83;;;;;;;4.19;100.00;100189.41;5034122;28;20038;-67
2023/11/04 08:30:10;;;;;;;8.70;5.70;;;;;;;3.95;100.00;100160.75;5033061;28;20272;-67
2023/11/04 08:32:36;;;;;;;6.90;5.37;;;;;;;3.42;100.00;100080.22;5034311;28;20042;-67
2023/11/04 08:35:02;;;;;;;10.93;4.90;;;;;;;4.15;100.00;100193.28;5033847;28;20275;-68
2023/11/04 08:37:29;;;;;;;11.88;5.13;;;;;;;4.11;100.00;100191.88;5034439;28;20029;-68
2023/11/04 08:39:55;;;;;;;6.73;5.07;;;;;;;4.09;100.00;100191.19;5032372;28;20044;-66
2023/11/04 08:42:22;;;;;;;10.70;5.10;;;;;;;4.10;100.00;100190.22;5034612;28;20052;-67
2023/11/04 08:44:47;;;;;;;6.63;4.57;;;;;;;3.86;100.00;100174.75;5034111;28;20485;-66
2023/11/04 08:47:13;;;;;;;5.70;4.80;;;;;;;4.03;100.00;100203.06;5033991;28;20288;-67
2023/11/04 08:49:39;;;;;;;6.80;5.03;;;;;;;4.09;100.00;100204.34;5033896;28;20081;-66
2023/11/04 08:52:04;;;;;;;7.47;4.77;;;;;;;4.07;100.00;100201.84;5034077;28;20546;-67
2023/11/04 08:54:30;;;;;;;5.90;5.17;;;;;;;4.09;100.00;100186.75;5034420;28;20040;-67
2023/11/04 08:56:56;;;;;;;6.80;4.50;;;;;;;4.10;100.00;100192.84;5034275;28;20064;-67
2023/11/04 08:59:21;;;;;;;5.40;4.63;;;;;;;4.07;100.00;100174.69;5035729;28;20485;-66
2023/11/04 09:01:47;;;;;;;8.20;4.70;;;;;;;4.26;100.00;100190.50;5042094;28;20063;-67
2023/11/04 09:04:16;;;;;;;6.30;4.90;;;;;;;4.27;100.00;100202.72;5041240;28;20496;-66
2023/11/04 09:06:41;;;;;;;6.87;5.40;;;;;;;4.04;100.00;100141.50;5040886;28;20044;-69
2023/11/04 09:09:08;;;;;;;6.83;5.10;;;;;;;4.39;100.00;100185.00;5035115;28;20272;-69
2023/11/04 09:11:35;;;;;;;7.70;5.13;;;;;;;4.23;100.00;100164.44;5033451;28;20037;-66
2023/11/04 09:14:04;;;;;;;6.50;4.40;;;;;;;4.17;100.00;100159.72;5033315;28;20291;-66
2023/11/04 09:16:33;;;;;;;4.63;4.15;;;;;;;4.15;100.00;100172.19;5033330;28;20319;-64
2023/11/04 09:18:59;;;;;;;8.98;5.47;;;;;;;4.08;100.00;100153.47;5033686;28;20034;-66
2023/11/04 09:21:25;;;;;;;7.90;4.97;;;;;;;4.00;100.00;100169.91;5033524;28;20056;-66
2023/11/04 09:23:52;;;;;;;9.27;5.10;;;;;;;3.89;100.00;100167.41;5032932;28;20294;-67
2023/11/04 09:26:19;;;;;;;7.37;5.30;;;;;;;3.86;100.00;100180.84;5032593;28;20308;-66
2023/11/04 09:28:45;;;;;;;6.63;4.87;;;;;;;3.69;100.00;100170.94;5032821;28;20049;-65
2023/11/04 09:31:12;;;;;;;8.63;4.93;;;;;;;3.55;100.00;100166.03;5032506;28;20268;-66
2023/11/04 09:33:37;;;;;;;9.20;5.50;;;;;;;3.55;100.00;100176.56;5032825;28;20034;-67
2023/11/04 09:36:03;;;;;;;9.33;5.20;;;;;;;3.40;100.00;100145.31;5032282;28;20292;-63
2023/11/04 09:38:29;;;;;;;7.93;5.10;;;;;;;3.50;100.00;100144.53;5032467;28;20404;-65
2023/11/04 09:40:55;;;;;;;5.60;3.80;;;;;;;3.59;100.00;100156.91;5032616;28;20087;-66
2023/11/04 09:43:22;;;;;;;9.37;6.10;;;;;;;3.61;100.00;100152.34;5032534;28;20037;-67
2023/11/04 09:45:48;;;;;;;5.63;4.03;;;;;;;3.54;100.00;100128.34;5032474;28;20053;-65
2023/11/04 09:48:13;;;;;;;6.17;4.80;;;;;;;3.64;100.00;100125.75;5032657;28;20631;-65
2023/11/04 09:50:39;;;;;;;7.77;4.70;;;;;;;3.68;100.00;100121.88;5033044;28;20037;-65
2023/11/04 09:53:21;;;;;;;5.10;4.07;;;;;;;3.66;100.00;100129.91;5031880;28;20025;-65
2023/11/04 09:55:52;;;;;;;5.93;4.73;;;;;;;3.74;100.00;100118.69;5032824;28;20072;-66
2023/11/04 09:58:19;;;;;;;4.53;4.07;;;;;;;3.25;100.00;100030.84;5032724;28;20338;-65
2023/11/04 10:00:46;;;;;;;6.73;4.33;;;;;;;3.82;100.00;100097.81;5032255;28;20678;-66
2023/11/04 10:03:12;;;;;;;6.67;3.80;;;;;;;3.81;100.00;100096.13;5032522;28;20275;-67
2023/11/04 10:05:51;;;;;;;5.83;4.20;;;;;;;3.52;100.00;100032.03;5030324;28;20398;-69
2023/11/04 10:08:16;;;;;;;5.05;3.95;;;;;;;3.80;100.00;100081.31;5033344;28;20326;-69
2023/11/04 10:10:42;;;;;;;5.07;4.53;;;;;;;3.77;100.00;100083.38;5034195;28;20033;-67
2023/11/04 10:13:08;;;;;;;6.93;4.47;;;;;;;3.70;100.00;100086.53;5032014;28;20030;-65
2023/11/04 10:15:40;;;;;;;5.27;4.67;;;;;;;2.97;100.00;99971.06;5030139;28;20290;-68
2023/11/04 10:18:08;;;;;;;6.20;4.70;;;;;;;3.82;100.00;100102.22;5031084;28;20033;-67
2023/11/04 10:20:34;;;;;;;5.00;4.50;;;;;;;3.78;100.00;100083.25;5013980;28;20263;-65
2023/11/04 10:23:00;;;;;;;7.73;4.53;;;;;;;3.90;100.00;100110.28;5031464;28;20058;-63
2023/11/04 10:25:26;;;;;;;8.77;4.87;;;;;;;3.69;100.00;100076.97;5031269;28;20048;-65
2023/11/04 10:27:52;;;;;;;6.03;5.13;;;;;;;3.78;100.00;100109.56;5031427;28;20037;-65
2023/11/04 10:30:17;;;;;;;8.50;4.73;;;;;;;3.72;100.00;100096.94;5031581;28;20682;-65
2023/11/04 10:32:48;;;;;;;6.93;4.77;;;;;;;3.87;100.00;100116.66;5031557;28;20037;-64
2023/11/04 10:35:18;;;;;;;8.93;5.57;;;;;;;3.72;100.00;100091.66;5031853;28;20032;-63
2023/11/04 10:37:48;;;;;;;7.53;5.20;;;;;;;3.80;100.00;100107.63;5031633;28;20711;-66
2023/11/04 10:40:15;;;;;;;7.13;5.37;;;;;;;3.75;100.00;100101.91;5031412;28;20797;-64
2023/11/04 10:43:03;;;;;;;7.23;5.00;;;;;;;3.78;100.00;100108.75;5031398;28;20268;-65
2023/11/04 10:45:40;;;;;;;6.10;5.13;;;;;;;3.79;100.00;100100.72;5031718;28;20314;-63
2023/11/04 10:48:15;;;;;;;5.57;4.77;;;;;;;3.64;100.00;100094.13;5032220;28;20363;-66
2023/11/04 10:50:44;;;;;;;11.23;6.30;;;;;;;3.55;100.00;100090.53;5031484;28;20278;-64
2023/11/04 10:53:17;;;;;;;8.17;5.73;;;;;;;3.68;100.00;100095.53;5031111;28;20337;-67
2023/11/04 10:55:51;;;;;;;5.50;4.40;;;;;;;3.61;100.00;100075.97;5031191;28;20322;-65
2023/11/04 10:58:27;;;;;;;7.17;5.93;;;;;;;3.74;100.00;100084.44;5032621;28;20260;-65
2023/11/04 11:00:54;;;;;;;7.33;4.93;;;;;;;3.61;100.00;100062.81;5032115;28;20304;-65
2023/11/04 11:03:20;;;;;;;6.40;4.87;;;;;;;3.72;100.00;100086.38;5031772;28;20725;-64
2023/11/04 11:05:49;;;;;;;6.87;5.27;;;;;;;3.60;100.00;100071.69;5031589;28;20299;-67
2023/11/04 11:08:16;;;;;;;8.63;5.68;;;;;;;3.48;100.00;100054.34;5031318;28;20767;-65
2023/11/04 11:10:49;;;;;;;6.77;5.30;;;;;;;3.58;100.00;100073.63;5031442;28;20034;-66
2023/11/04 11:13:20;;;;;;;5.50;4.63;;;;;;;3.50;100.00;100061.13;5032160;28;20268;-64
2023/11/04 11:15:47;;;;;;;7.67;5.97;;;;;;;3.47;100.00;100063.19;5035795;28;20622;-66
2023/11/04 11:18:12;;;;;;;10.57;5.67;;;;;;;3.15;100.00;100014.19;5035343;28;21104;-68
2023/11/04 11:20:38;;;;;;;6.53;5.43;;;;;;;3.37;100.00;100055.25;5034393;28;20295;-65
2023/11/04 11:23:08;;;;;;;7.13;5.60;;;;;;;3.46;100.00;100064.16;5034208;28;20060;-67
2023/11/04 11:25:36;;;;;;;9.73;5.37;;;;;;;3.53;100.00;100078.47;5035086;28;20045;-67
2023/11/04 11:28:14;;;;;;;7.28;5.60;;;;;;;3.28;100.00;100035.84;5033587;28;20359;-65
2023/11/04 11:30:42;;;;;;;5.17;4.37;;;;;;;3.50;100.00;100062.94;5033639;28;20037;-69
2023/11/04 11:33:26;;;;;;;8.45;5.40;;;;;;;3.51;100.00;100072.50;5032320;28;20334;-68
2023/11/04 11:36:06;;;;;;;6.67;5.60;;;;;;;3.49;100.00;100069.16;5034128;28;20053;-70
2023/11/04 11:38:34;;;;;;;8.53;5.37;;;;;;;3.19;100.00;100022.66;5018576;28;20326;-73
2023/11/04 11:41:03;;;;;;;13.23;5.60;;;;;;;3.40;100.00;100071.63;5034719;28;20271;-72
2023/11/04 11:43:29;;;;;;;8.63;5.03;;;;;;;3.24;100.00;100055.50;5033333;28;20315;-70
2023/11/04 11:45:59;;;;;;;7.70;5.40;;;;;;;3.20;100.00;100033.06;5034721;28;20379;-66
2023/11/04 11:48:25;;;;;;;10.53;5.40;;;;;;;3.35;100.00;100050.13;5034927;28;20280;-70
2023/11/04 11:50:51;;;;;;;10.90;5.77;;;;;;;3.14;100.00;100019.56;5033250;28;20278;-69
2023/11/04 11:53:18;;;;;;;9.27;5.67;;;;;;;3.28;100.00;100035.84;5033498;28;20268;-66
2023/11/04 11:55:56;;;;;;;13.20;6.30;;;;;;;3.40;100.00;100040.03;5032502;28;20401;-69
2023/11/04 11:58:22;;;;;;;7.25;5.50;;;;;;;3.36;100.00;100025.47;5014688;28;20269;-74
2023/11/04 12:00:48;;;;;;;10.47;5.77;;;;;;;3.24;100.00;100008.13;5012998;28;20050;-68
2023/11/04 12:03:13;;;;;;;12.30;5.70;;;;;;;3.29;100.00;100011.19;5014631;28;20042;-69
2023/11/04 12:05:39;;;;;;;14.30;5.93;;;;;;;3.55;100.00;100037.88;5030938;28;20136;-70
2023/11/04 12:08:05;;;;;;;5.57;4.70;;;;;;;3.56;100.00;100028.16;5034272;28;20477;-68